createdAt,value
2023-07-26T00:02:18.818Z,69.34
2023-07-26T00:04:46.392Z,70.00
2023-07-26T00:07:13.989Z,69.53
2023-07-26T00:09:41.635Z,69.91
2023-07-26T00:12:09.232Z,69.90
2023-07-26T00:14:36.775Z,69.94
2023-07-26T00:17:04.400Z,70.08
2023-07-26T00:19:31.995Z,70.27
2023-07-26T00:22:01.496Z,70.72
2023-07-26T00:24:29.220Z,70.51
2023-07-26T00:26:56.843Z,70.69
2023-07-26T00:29:25.738Z,70.76
2023-07-26T00:31:53.793Z,71.03
2023-07-26T00:34:21.597Z,70.50
2023-07-26T00:36:49.186Z,70.29
2023-07-26T00:39:16.804Z,70.34
2023-07-26T00:41:44.411Z,70.79
2023-07-26T00:44:12.067Z,70.60
2023-07-26T00:46:39.909Z,70.98
2023-07-26T00:49:07.587Z,70.53
2023-07-26T00:51:35.509Z,70.95
2023-07-26T00:54:05.129Z,70.91
2023-07-26T00:56:33.089Z,70.60
2023-07-26T00:59:00.874Z,70.33
2023-07-26T01:01:28.560Z,69.90
2023-07-26T01:03:56.164Z,70.40
2023-07-26T01:06:23.712Z,70.00
2023-07-26T01:08:51.288Z,70.36
2023-07-26T01:11:18.878Z,69.95
2023-07-26T01:13:46.471Z,70.08
2023-07-26T01:16:14.540Z,70.31
2023-07-26T01:18:42.099Z,69.98
2023-07-26T01:21:09.692Z,70.04
2023-07-26T01:23:39.687Z,70.09
2023-07-26T01:26:07.464Z,69.87
2023-07-26T01:28:35.094Z,70.06
2023-07-26T01:31:02.860Z,70.36
2023-07-26T01:33:30.453Z,70.43
2023-07-26T01:35:58.020Z,69.87
2023-07-26T01:38:25.646Z,70.03
2023-07-26T01:40:53.286Z,69.84
2023-07-26T01:43:20.877Z,69.33
2023-07-26T01:45:48.515Z,70.09
2023-07-26T01:48:16.115Z,69.54
2023-07-26T01:50:43.676Z,69.98
2023-07-26T01:53:11.410Z,69.57
2023-07-26T01:55:39.017Z,69.98
2023-07-26T01:58:06.571Z,69.76
2023-07-26T02:00:35.205Z,69.94
2023-07-26T02:03:02.751Z,69.97
2023-07-26T02:05:30.358Z,69.60
2023-07-26T02:07:57.977Z,70.09
2023-07-26T02:10:25.514Z,70.08
2023-07-26T02:12:53.125Z,70.44
2023-07-26T02:15:21.409Z,71.11
2023-07-26T02:17:49.137Z,70.75
2023-07-26T02:20:16.753Z,70.75
2023-07-26T02:22:44.709Z,70.90
2023-07-26T02:25:12.462Z,70.69
2023-07-26T02:27:40.042Z,70.63
2023-07-26T02:30:07.648Z,70.98
2023-07-26T02:32:35.282Z,70.85
2023-07-26T02:35:02.857Z,71.35
2023-07-26T02:37:30.639Z,70.52
2023-07-26T02:39:58.164Z,70.97
2023-07-26T02:42:26.865Z,70.21
2023-07-26T02:44:54.848Z,70.87
2023-07-26T02:47:22.523Z,70.76
2023-07-26T02:49:50.459Z,70.08
2023-07-26T02:52:18.066Z,70.72
2023-07-26T02:54:45.639Z,70.13
2023-07-26T02:57:13.257Z,70.08
2023-07-26T02:59:40.867Z,70.25
2023-07-26T03:02:08.685Z,70.48
2023-07-26T03:04:36.830Z,70.42
2023-07-26T03:07:04.440Z,70.00
2023-07-26T03:09:32.027Z,69.97
2023-07-26T03:11:59.588Z,70.09
2023-07-26T03:14:27.211Z,70.52
2023-07-26T03:16:56.532Z,70.50
2023-07-26T03:19:27.810Z,70.53
2023-07-26T03:21:55.400Z,70.01
2023-07-26T03:24:23.004Z,70.59
2023-07-26T03:26:52.109Z,70.21
2023-07-26T03:29:19.672Z,69.87
2023-07-26T03:31:47.206Z,70.38
2023-07-26T03:34:14.894Z,69.73
2023-07-26T03:36:42.498Z,70.24
2023-07-26T03:39:10.317Z,70.50
2023-07-26T03:41:37.903Z,70.95
2023-07-26T03:44:05.470Z,71.21
2023-07-26T03:46:33.480Z,71.36
2023-07-26T03:49:01.668Z,71.56
2023-07-26T03:51:29.600Z,71.66
2023-07-26T03:53:57.161Z,71.43
2023-07-26T03:56:24.764Z,71.60
2023-07-26T03:58:52.334Z,71.22
2023-07-26T04:01:19.950Z,71.54
2023-07-26T04:03:47.655Z,72.02
2023-07-26T04:06:15.251Z,72.14
2023-07-26T04:08:42.873Z,72.05
2023-07-26T04:11:10.862Z,71.88
2023-07-26T04:13:38.412Z,71.99
2023-07-26T04:16:05.989Z,71.44
2023-07-26T04:18:33.602Z,71.71
2023-07-26T04:21:01.138Z,72.07
2023-07-26T04:23:28.657Z,72.25
2023-07-26T04:25:56.226Z,72.52
2023-07-26T04:28:23.900Z,72.27
2023-07-26T04:30:53.062Z,72.41
2023-07-26T04:33:22.638Z,72.83
2023-07-26T04:35:50.203Z,72.53
2023-07-26T04:38:17.797Z,72.44
2023-07-26T04:40:47.489Z,73.03
2023-07-26T04:43:15.098Z,72.67
2023-07-26T04:45:42.644Z,72.87
2023-07-26T04:48:10.281Z,72.65
2023-07-26T04:50:37.956Z,72.37
2023-07-26T04:53:05.586Z,72.39
2023-07-26T04:55:33.159Z,72.04
2023-07-26T04:58:00.680Z,72.19
2023-07-26T05:00:28.257Z,72.03
2023-07-26T05:02:55.900Z,72.29
2023-07-26T05:05:23.672Z,71.91
2023-07-26T05:07:51.213Z,72.20
2023-07-26T05:10:18.821Z,72.76
2023-07-26T05:12:46.454Z,72.66
2023-07-26T05:15:14.925Z,72.80
2023-07-26T05:17:42.636Z,72.53
2023-07-26T05:20:10.183Z,72.57
2023-07-26T05:22:37.813Z,72.91
2023-07-26T05:25:05.470Z,73.24
2023-07-26T05:27:33.085Z,72.83
2023-07-26T05:30:00.736Z,73.11
2023-07-26T05:32:28.397Z,72.71
2023-07-26T05:34:56.073Z,72.40
2023-07-26T05:37:25.377Z,72.33
2023-07-26T05:39:53.298Z,72.31
2023-07-26T05:42:20.889Z,72.54
2023-07-26T05:44:48.477Z,71.57
2023-07-26T05:47:16.127Z,71.78
2023-07-26T05:49:43.915Z,71.51
2023-07-26T05:52:11.525Z,71.75
2023-07-26T05:54:39.255Z,71.90
2023-07-26T05:57:07.329Z,71.28
2023-07-26T05:59:34.912Z,71.32
2023-07-26T06:02:02.672Z,70.96
2023-07-26T06:04:30.325Z,70.85
2023-07-26T06:06:58.067Z,71.08
2023-07-26T06:09:27.181Z,70.74
2023-07-26T06:11:57.260Z,70.86
2023-07-26T06:14:26.465Z,70.90
2023-07-26T06:16:54.492Z,70.41
2023-07-26T06:19:23.670Z,70.40
2023-07-26T06:21:51.263Z,70.74
2023-07-26T06:24:19.214Z,70.65
2023-07-26T06:26:46.877Z,70.75
2023-07-26T06:29:15.180Z,70.96
2023-07-26T06:31:43.630Z,70.75
2023-07-26T06:34:11.559Z,71.13
2023-07-26T06:36:39.505Z,70.67
2023-07-26T06:39:07.217Z,70.32
2023-07-26T06:41:35.335Z,70.03
2023-07-26T06:44:03.209Z,70.25
2023-07-26T06:46:30.926Z,70.27
2023-07-26T06:48:58.716Z,69.70
2023-07-26T06:51:26.445Z,69.86
2023-07-26T06:53:54.218Z,70.32
2023-07-26T06:56:24.109Z,70.48
2023-07-26T06:58:52.096Z,70.85
2023-07-26T07:01:19.845Z,70.49
2023-07-26T07:03:50.535Z,70.53
2023-07-26T07:06:23.957Z,70.65
2023-07-26T07:08:51.564Z,70.73
2023-07-26T07:11:19.214Z,69.70
2023-07-26T07:13:46.933Z,69.75
2023-07-26T07:16:15.012Z,69.45
2023-07-26T07:18:43.371Z,68.69
2023-07-26T07:21:11.102Z,68.68
2023-07-26T07:23:38.800Z,68.86
2023-07-26T07:26:06.905Z,68.37
2023-07-26T07:28:34.653Z,68.13
2023-07-26T07:31:02.879Z,68.47
2023-07-26T07:33:31.315Z,67.80
2023-07-26T07:35:59.147Z,68.28
2023-07-26T07:38:26.771Z,67.44
2023-07-26T07:40:54.521Z,67.64
2023-07-26T07:43:22.664Z,67.37
2023-07-26T07:45:50.680Z,66.81
2023-07-26T07:48:18.924Z,67.50
2023-07-26T07:50:47.085Z,67.41
2023-07-26T07:53:14.866Z,67.01
2023-07-26T07:55:42.952Z,66.95
2023-07-26T07:58:10.953Z,67.09
2023-07-26T08:00:38.644Z,66.46
2023-07-26T08:03:06.498Z,66.50
2023-07-26T08:05:34.342Z,66.22
2023-07-26T08:08:02.189Z,66.28
2023-07-26T08:10:30.026Z,66.39
2023-07-26T08:12:57.866Z,66.47
2023-07-26T08:15:25.627Z,66.35
2023-07-26T08:17:53.614Z,65.53
2023-07-26T08:20:21.994Z,65.52
2023-07-26T08:22:49.740Z,65.09
2023-07-26T08:25:18.019Z,64.97
2023-07-26T08:27:45.876Z,64.72
2023-07-26T08:30:13.866Z,64.44
2023-07-26T08:32:43.258Z,64.49
2023-07-26T08:35:11.217Z,64.34
2023-07-26T08:37:39.006Z,64.33
2023-07-26T08:40:08.093Z,64.72
2023-07-26T08:42:35.926Z,64.18
2023-07-26T08:45:04.759Z,63.69
2023-07-26T08:47:32.548Z,64.41
2023-07-26T08:50:00.558Z,64.27
2023-07-26T08:52:28.334Z,64.60
2023-07-26T08:54:56.774Z,64.29
2023-07-26T08:57:25.111Z,63.93
2023-07-26T08:59:52.819Z,64.11
2023-07-26T09:02:20.722Z,64.28
2023-07-26T09:04:48.654Z,64.58
2023-07-26T09:07:16.537Z,63.68
2023-07-26T09:09:44.840Z,63.36
2023-07-26T09:12:12.915Z,62.96
2023-07-26T09:14:40.744Z,62.92
2023-07-26T09:17:08.985Z,63.07
2023-07-26T09:19:36.831Z,62.17
2023-07-26T09:22:04.604Z,61.54
2023-07-26T09:24:34.880Z,62.01
2023-07-26T09:27:02.947Z,61.49
2023-07-26T09:29:30.634Z,61.90
2023-07-26T09:31:58.496Z,61.72
2023-07-26T09:34:26.613Z,61.78
2023-07-26T09:36:56.159Z,61.71
2023-07-26T09:39:24.054Z,61.46
2023-07-26T09:41:54.927Z,60.89
2023-07-26T09:44:23.267Z,61.24
2023-07-26T09:46:51.556Z,61.52
2023-07-26T09:54:32.928Z,60.60
2023-07-26T09:57:01.424Z,59.66
2023-07-26T09:59:29.637Z,58.55
2023-07-26T10:01:57.450Z,57.54
2023-07-26T10:04:25.404Z,56.91
2023-07-26T10:06:53.438Z,57.41
2023-07-26T10:09:21.557Z,58.00
2023-07-26T10:11:49.511Z,58.47
2023-07-26T10:14:17.521Z,59.02
2023-07-26T10:16:45.408Z,60.06
2023-07-26T10:19:13.624Z,60.67
2023-07-26T10:21:43.222Z,62.59
2023-07-26T10:24:11.160Z,65.99
2023-07-26T10:26:39.189Z,68.31
2023-07-26T10:29:07.145Z,70.54
2023-07-26T10:31:35.104Z,71.90
2023-07-26T10:34:03.857Z,72.30
2023-07-26T10:36:32.189Z,73.78
2023-07-26T10:39:00.336Z,74.25
2023-07-26T10:41:28.112Z,74.47
2023-07-26T10:43:58.920Z,74.06
2023-07-26T10:46:28.442Z,74.50
2023-07-26T10:48:56.341Z,74.79
2023-07-26T10:51:24.316Z,74.67
2023-07-26T10:53:53.578Z,74.77
2023-07-26T10:56:21.451Z,75.14
2023-07-26T10:58:49.839Z,74.74
2023-07-26T11:01:17.710Z,74.38
2023-07-26T11:03:45.571Z,74.52
2023-07-26T11:06:13.546Z,74.84
2023-07-26T11:08:41.496Z,74.03
2023-07-26T11:11:09.345Z,73.98
2023-07-26T11:13:37.365Z,73.85
2023-07-26T11:16:15.317Z,73.00
2023-07-26T11:18:47.811Z,72.22
2023-07-26T11:21:16.101Z,69.57
2023-07-26T11:23:43.918Z,66.49
2023-07-26T11:26:12.634Z,64.72
2023-07-26T11:28:40.560Z,62.33
2023-07-26T11:31:08.701Z,60.35
2023-07-26T11:33:36.945Z,58.77
2023-07-26T11:36:05.278Z,58.60
2023-07-26T11:38:33.137Z,58.38
2023-07-26T11:41:01.080Z,57.38
2023-07-26T11:43:29.574Z,56.70
2023-07-26T11:45:58.093Z,55.70
2023-07-26T11:48:27.586Z,54.52
2023-07-26T11:50:55.474Z,54.31
2023-07-26T11:53:31.903Z,54.22
2023-07-26T11:56:09.190Z,53.85
2023-07-26T11:58:37.009Z,53.63
2023-07-26T12:01:05.246Z,53.91
2023-07-26T12:03:33.766Z,52.99
2023-07-26T12:06:06.550Z,53.15
2023-07-26T12:08:36.813Z,51.87
2023-07-26T12:11:07.704Z,52.24
2023-07-26T12:13:36.008Z,51.75
2023-07-26T12:16:04.297Z,50.96
2023-07-26T12:18:32.576Z,50.41
2023-07-26T12:21:03.652Z,51.00
2023-07-26T12:23:33.696Z,49.57
2023-07-26T12:26:01.583Z,50.06
2023-07-26T12:28:29.551Z,49.86
2023-07-26T12:30:58.032Z,49.24
2023-07-26T12:33:25.916Z,48.39
2023-07-26T12:35:53.858Z,48.48
2023-07-26T12:38:23.252Z,47.55
2023-07-26T12:40:51.055Z,47.56
2023-07-26T12:43:18.853Z,47.47
2023-07-26T12:45:46.914Z,47.76
2023-07-26T12:48:14.717Z,49.72
2023-07-26T12:50:43.039Z,49.89
2023-07-26T12:53:11.608Z,50.87
2023-07-26T12:55:39.804Z,53.32
2023-07-26T12:58:07.611Z,55.64
2023-07-26T13:00:35.621Z,57.66
2023-07-26T13:03:03.711Z,58.00
2023-07-26T13:05:31.813Z,56.22
2023-07-26T13:07:59.778Z,54.17
2023-07-26T13:10:28.008Z,52.29
2023-07-26T13:12:56.083Z,51.08
2023-07-26T13:15:23.921Z,51.09
2023-07-26T13:17:52.114Z,49.90
2023-07-26T13:20:19.967Z,50.09
2023-07-26T13:22:48.033Z,51.60
2023-07-26T13:25:15.976Z,53.17
2023-07-26T13:27:44.180Z,55.13
2023-07-26T13:30:12.317Z,57.02
2023-07-26T13:32:40.254Z,59.48
2023-07-26T13:35:09.745Z,61.40
2023-07-26T13:37:38.476Z,64.99
2023-07-26T13:40:07.391Z,68.22
2023-07-26T13:42:35.473Z,70.68
2023-07-26T13:45:03.380Z,71.92
2023-07-26T13:47:33.332Z,73.37
2023-07-26T13:50:01.364Z,73.63
2023-07-26T13:52:29.412Z,74.81
2023-07-26T13:54:57.265Z,75.28
2023-07-26T13:57:25.253Z,75.03
2023-07-26T13:59:53.345Z,75.83
2023-07-26T14:02:21.131Z,75.08
2023-07-26T14:04:49.167Z,74.91
2023-07-26T14:07:18.629Z,74.27
2023-07-26T14:09:47.530Z,74.31
2023-07-26T14:12:17.226Z,72.77
2023-07-26T14:14:45.270Z,71.35
2023-07-26T14:17:13.721Z,70.08
2023-07-26T14:19:41.696Z,68.55
2023-07-26T14:22:09.849Z,65.98
2023-07-26T14:24:38.025Z,64.75
2023-07-26T14:27:07.743Z,63.14
2023-07-26T14:29:35.821Z,62.00
2023-07-26T14:32:03.662Z,60.09
2023-07-26T14:34:32.668Z,59.28
2023-07-26T14:37:00.609Z,58.70
2023-07-26T14:39:28.536Z,58.17
2023-07-26T14:41:58.120Z,57.82
2023-07-26T14:44:26.099Z,56.98
2023-07-26T14:46:53.972Z,56.70
2023-07-26T14:49:24.545Z,56.94
2023-07-26T14:51:52.446Z,56.43
2023-07-26T14:54:20.266Z,55.32
2023-07-26T14:57:00.461Z,54.46
2023-07-26T14:59:37.662Z,53.31
2023-07-26T15:02:05.549Z,54.75
2023-07-26T15:04:33.542Z,54.80
2023-07-26T15:07:01.685Z,53.76
2023-07-26T15:09:29.559Z,54.56
2023-07-26T15:11:58.699Z,55.74
2023-07-26T15:14:26.824Z,57.62
2023-07-26T15:16:54.854Z,59.35
2023-07-26T15:19:23.324Z,60.72
2023-07-26T15:21:51.584Z,61.06
2023-07-26T15:24:19.625Z,61.63
2023-07-26T15:26:47.514Z,60.09
2023-07-26T15:29:15.812Z,57.76
2023-07-26T15:31:43.702Z,56.56
2023-07-26T15:34:11.675Z,56.86
2023-07-26T15:36:39.768Z,54.36
2023-07-26T15:39:09.759Z,54.38
2023-07-26T15:42:06.683Z,56.13
2023-07-26T15:49:28.126Z,60.60
2023-07-26T15:51:56.115Z,57.91
2023-07-26T15:54:23.960Z,57.04
2023-07-26T15:56:51.825Z,56.52
2023-07-26T15:59:19.914Z,57.34
2023-07-26T16:01:47.763Z,58.61
2023-07-26T16:21:57.619Z,60.17
2023-07-26T16:24:26.060Z,56.86
2023-07-26T16:26:54.095Z,55.15
2023-07-26T16:29:21.870Z,53.89
2023-07-26T16:31:49.835Z,52.50
2023-07-26T16:34:18.606Z,51.50
2023-07-26T16:36:46.473Z,54.21
2023-07-26T16:39:14.719Z,56.36
2023-07-26T16:41:42.691Z,58.75
2023-07-26T16:44:10.604Z,59.88
2023-07-26T16:46:58.025Z,61.42
2023-07-26T16:49:28.017Z,61.54
2023-07-26T16:51:55.965Z,62.55
2023-07-26T16:54:24.204Z,62.44
2023-07-26T16:56:52.148Z,62.40
2023-07-26T16:59:20.092Z,62.98
2023-07-26T17:01:47.923Z,62.51
2023-07-26T17:04:15.730Z,62.89
2023-07-26T17:06:44.118Z,63.09
2023-07-26T17:09:12.280Z,63.15
2023-07-26T17:11:40.283Z,63.17
2023-07-26T17:14:08.120Z,63.18
2023-07-26T17:16:36.361Z,63.37
2023-07-26T17:19:04.910Z,63.36
2023-07-26T17:21:32.744Z,63.34
2023-07-26T17:24:00.594Z,63.74
2023-07-26T17:26:31.970Z,63.56
2023-07-26T17:29:00.497Z,63.90
2023-07-26T17:31:29.113Z,63.62
2023-07-26T17:33:57.413Z,63.20
2023-07-26T17:36:25.303Z,63.27
2023-07-26T17:38:53.238Z,62.84
2023-07-26T17:41:21.380Z,63.29
2023-07-26T17:43:50.350Z,63.83
2023-07-26T17:46:18.323Z,63.36
2023-07-26T17:48:46.469Z,63.65
2023-07-26T17:51:14.901Z,63.48
2023-07-26T17:53:42.763Z,63.87
2023-07-26T17:56:14.164Z,64.05
2023-07-26T17:58:42.066Z,63.88
2023-07-26T18:01:09.954Z,63.52
2023-07-26T18:03:40.089Z,63.67
2023-07-26T18:06:09.026Z,63.61
2023-07-26T18:08:38.415Z,64.18
2023-07-26T18:11:06.911Z,64.12
2023-07-26T18:13:36.781Z,64.34
2023-07-26T18:16:04.725Z,64.10
2023-07-26T18:18:33.044Z,64.45
2023-07-26T18:21:00.936Z,64.11
2023-07-26T18:23:28.796Z,63.95
2023-07-26T18:25:56.698Z,64.29
2023-07-26T18:28:24.472Z,64.22
2023-07-26T18:30:52.510Z,64.86
2023-07-26T18:33:20.722Z,64.69
2023-07-26T18:35:48.684Z,64.17
2023-07-26T18:38:16.616Z,64.72
2023-07-26T18:40:44.620Z,64.74
2023-07-26T18:43:13.656Z,64.60
2023-07-26T18:45:43.265Z,65.26
2023-07-26T18:48:11.865Z,65.49
2023-07-26T18:50:39.785Z,65.33
2023-07-26T18:53:07.874Z,65.11
2023-07-26T18:55:36.499Z,65.86
2023-07-26T18:58:04.896Z,65.35
2023-07-26T19:00:32.724Z,65.96
2023-07-26T19:03:01.324Z,66.01
2023-07-26T19:05:29.325Z,66.45
2023-07-26T19:07:57.929Z,66.08
2023-07-26T19:10:28.714Z,66.24
2023-07-26T19:12:56.965Z,66.03
2023-07-26T19:15:24.859Z,66.74
2023-07-26T19:17:53.475Z,66.69
2023-07-26T19:20:21.370Z,66.37
2023-07-26T19:22:49.275Z,66.70
2023-07-26T19:25:17.196Z,66.26
2023-07-26T19:27:45.060Z,66.46
2023-07-26T19:30:13.134Z,66.66
2023-07-26T19:32:41.172Z,67.30
2023-07-26T19:35:10.480Z,67.38
2023-07-26T19:37:39.655Z,67.57
2023-07-26T19:40:07.529Z,67.50
2023-07-26T19:42:35.346Z,68.10
2023-07-26T19:45:04.101Z,68.19
2023-07-26T19:47:32.178Z,67.96
2023-07-26T19:50:00.206Z,68.74
2023-07-26T19:52:28.335Z,68.57
2023-07-26T19:54:56.259Z,69.39
2023-07-26T19:57:26.256Z,69.24
2023-07-26T19:59:54.307Z,69.10
2023-07-26T20:02:22.730Z,69.67
2023-07-26T20:04:50.671Z,69.63
2023-07-26T20:07:18.420Z,69.67
2023-07-26T20:09:46.218Z,69.71
2023-07-26T20:12:14.023Z,69.66
2023-07-26T20:14:41.883Z,70.22
2023-07-26T20:17:09.844Z,70.27
2023-07-26T20:19:37.608Z,69.77
2023-07-26T20:22:05.477Z,70.30
2023-07-26T20:24:34.976Z,70.49
2023-07-26T20:27:02.910Z,70.36
2023-07-26T20:29:30.700Z,70.11
2023-07-26T20:31:58.629Z,70.54
2023-07-26T20:34:26.464Z,70.17
2023-07-26T20:36:54.338Z,70.43
2023-07-26T20:39:22.228Z,70.55
2023-07-26T20:41:50.066Z,70.28
2023-07-26T20:44:17.922Z,70.89
2023-07-26T20:46:46.806Z,70.78
2023-07-26T20:49:15.709Z,70.85
2023-07-26T20:51:43.445Z,70.63
2023-07-26T20:54:11.356Z,70.89
2023-07-26T20:56:39.230Z,71.11
2023-07-26T20:59:07.021Z,70.93
2023-07-26T21:01:35.523Z,70.44
2023-07-26T21:04:03.614Z,70.73
2023-07-26T21:06:31.375Z,71.12
2023-07-26T21:08:59.424Z,71.35
2023-07-26T21:11:27.234Z,71.30
2023-07-26T21:13:55.047Z,71.03
2023-07-26T21:16:22.953Z,70.89
2023-07-26T21:18:50.685Z,71.25
2023-07-26T21:21:18.757Z,71.67
2023-07-26T21:23:46.677Z,71.62
2023-07-26T21:26:14.609Z,71.23
2023-07-26T21:28:42.419Z,71.49
2023-07-26T21:31:11.583Z,71.55
2023-07-26T21:33:39.361Z,71.04
2023-07-26T21:36:07.134Z,71.42
2023-07-26T21:38:35.049Z,71.61
2023-07-26T21:41:03.756Z,71.57
2023-07-26T21:43:31.549Z,71.02
2023-07-26T21:45:59.368Z,71.50
2023-07-26T21:48:27.197Z,71.22
2023-07-26T21:50:55.205Z,71.53
2023-07-26T21:53:23.367Z,71.01
2023-07-26T21:55:51.140Z,71.60
2023-07-26T21:58:18.937Z,71.40
2023-07-26T22:00:47.288Z,71.48
2023-07-26T22:03:15.653Z,71.34
2023-07-26T22:05:43.370Z,71.31
2023-07-26T22:08:11.167Z,71.23
2023-07-26T22:10:39.025Z,71.38
2023-07-26T22:13:06.778Z,71.77
2023-07-26T22:15:36.347Z,71.60
2023-07-26T22:18:04.669Z,71.81
2023-07-26T22:20:32.423Z,71.42
2023-07-26T22:23:00.180Z,70.91
2023-07-26T22:25:27.894Z,71.18
2023-07-26T22:27:55.590Z,70.51
2023-07-26T22:30:23.290Z,70.85
2023-07-26T22:32:51.065Z,70.35
2023-07-26T22:35:18.843Z,70.41
2023-07-26T22:37:46.464Z,70.47
2023-07-26T22:40:14.278Z,70.35
2023-07-26T22:42:41.935Z,69.95
2023-07-26T22:45:10.558Z,70.30
2023-07-26T22:47:38.201Z,69.72
2023-07-26T22:50:06.228Z,69.49
2023-07-26T22:52:33.831Z,70.17
2023-07-26T22:55:01.450Z,69.62
2023-07-26T22:57:29.509Z,69.85
2023-07-26T22:59:57.154Z,69.44
2023-07-26T23:02:25.106Z,69.69
2023-07-26T23:04:52.746Z,70.10
2023-07-26T23:07:20.400Z,70.23
2023-07-26T23:09:47.997Z,70.16
2023-07-26T23:12:15.553Z,70.44
2023-07-26T23:14:43.179Z,69.93
2023-07-26T23:17:10.780Z,70.21
2023-07-26T23:19:38.769Z,70.07
2023-07-26T23:22:07.275Z,69.76
2023-07-26T23:24:34.907Z,69.61
2023-07-26T23:27:02.616Z,70.03
2023-07-26T23:29:30.180Z,69.35
2023-07-26T23:31:57.911Z,69.39
2023-07-26T23:34:25.562Z,69.50
2023-07-26T23:36:53.231Z,69.72
2023-07-26T23:39:20.863Z,69.23
2023-07-26T23:41:49.708Z,69.42
2023-07-26T23:44:17.380Z,69.66
2023-07-26T23:46:45.022Z,69.93
2023-07-26T23:49:12.741Z,69.66
2023-07-26T23:51:40.357Z,69.94
2023-07-26T23:54:07.950Z,69.83
2023-07-26T23:56:37.128Z,70.09
2023-07-26T23:59:04.868Z,69.68
